createdAt,value
2022-11-23T17:01:43.655Z,18.25
2022-11-23T17:03:16.288Z,21.40
2022-11-23T17:04:48.045Z,20.60
2022-11-23T17:06:23.052Z,19.20
2022-11-23T17:07:54.813Z,16.60
2022-11-23T17:09:26.706Z,19.80
2022-11-23T17:10:58.442Z,17.20
2022-11-23T17:12:30.281Z,16.60
2022-11-23T17:14:01.977Z,17.20
2022-11-23T17:15:33.610Z,18.60
2022-11-23T17:17:05.536Z,16.60
2022-11-23T17:18:37.270Z,18.00
2022-11-23T17:20:12.311Z,19.60
2022-11-23T17:21:44.049Z,18.00
2022-11-23T17:23:15.762Z,20.00
2022-11-23T17:24:47.581Z,16.20
2022-11-23T17:26:28.044Z,16.60
2022-11-23T17:28:01.333Z,19.00
2022-11-23T17:29:36.576Z,16.40
2022-11-23T17:31:10.906Z,18.80
2022-11-23T17:32:42.678Z,10.40
2022-11-23T17:34:15.025Z,20.20
2022-11-23T17:35:47.005Z,17.00
2022-11-23T17:37:20.108Z,8.80
2022-11-23T17:38:52.731Z,18.20
2022-11-23T17:40:24.776Z,18.80
2022-11-23T17:42:01.558Z,14.80
2022-11-23T17:43:36.945Z,18.40
2022-11-23T17:45:09.094Z,18.40
2022-11-23T17:46:41.253Z,16.20
2022-11-23T17:48:13.321Z,15.80
2022-11-23T17:49:45.083Z,18.20
2022-11-23T17:51:17.651Z,18.60
2022-11-23T17:52:49.568Z,17.80
2022-11-23T17:54:25.006Z,16.40
2022-11-23T17:55:56.885Z,18.60
2022-11-23T17:57:28.682Z,19.00
2022-11-23T17:59:00.559Z,16.20
2022-11-23T18:00:32.243Z,18.40
2022-11-23T18:02:03.956Z,16.60
2022-11-23T18:03:35.673Z,20.00
2022-11-23T18:05:08.173Z,18.40
2022-11-23T18:06:39.850Z,19.40
2022-11-23T18:08:11.511Z,23.00
2022-11-23T18:09:43.298Z,29.40
2022-11-23T18:11:15.590Z,34.00
2022-11-23T18:12:47.564Z,37.75
2022-11-23T18:14:19.353Z,48.75
2022-11-23T18:15:51.127Z,60.00
2022-11-23T18:17:24.031Z,54.75
2022-11-23T18:18:55.928Z,60.75
2022-11-23T18:20:27.702Z,63.40
2022-11-23T18:21:59.581Z,73.80
2022-11-23T18:23:32.416Z,74.00
2022-11-23T18:25:04.657Z,83.50
2022-11-23T18:26:36.494Z,83.50
2022-11-23T18:28:08.281Z,82.00
2022-11-23T18:29:40.450Z,87.75
2022-11-23T18:31:12.236Z,99.75
2022-11-23T18:32:44.093Z,110.25
2022-11-23T18:34:16.062Z,115.25
2022-11-23T18:35:47.838Z,127.33
2022-11-23T18:37:19.676Z,133.67
2022-11-23T18:38:51.534Z,121.33
2022-11-23T18:40:23.330Z,115.75
2022-11-23T18:41:54.948Z,122.00
2022-11-23T18:43:26.931Z,124.00
2022-11-23T18:44:58.673Z,128.67
2022-11-23T18:46:32.357Z,120.33
2022-11-23T18:48:05.179Z,126.33
2022-11-23T18:49:36.954Z,125.75
2022-11-23T18:51:11.840Z,126.00
2022-11-23T18:52:43.752Z,125.00
2022-11-23T18:54:15.513Z,122.75
2022-11-23T18:55:47.284Z,116.50
2022-11-23T18:57:19.069Z,121.25
2022-11-23T18:58:50.824Z,119.50
2022-11-23T19:00:22.640Z,115.00
2022-11-23T19:01:54.427Z,107.50
2022-11-23T19:03:26.234Z,135.67
2022-11-23T19:04:58.059Z,109.50
2022-11-23T19:06:29.804Z,110.50
2022-11-23T19:08:05.478Z,99.00
2022-11-23T19:09:37.424Z,89.75
2022-11-23T19:11:15.844Z,98.00
2022-11-23T19:12:47.944Z,89.50
2022-11-23T19:14:19.674Z,87.50
2022-11-23T19:15:51.416Z,87.25
2022-11-23T19:17:23.252Z,89.25
2022-11-23T19:19:04.930Z,85.00
2022-11-23T19:20:36.672Z,84.25
2022-11-23T19:22:08.428Z,84.50
2022-11-23T19:23:40.138Z,79.25
2022-11-23T19:25:11.879Z,86.00
2022-11-23T19:26:43.612Z,77.50
2022-11-23T19:28:15.317Z,87.25
2022-11-23T19:29:47.093Z,81.75
2022-11-23T19:31:23.113Z,91.25
2022-11-23T19:32:54.917Z,91.00
2022-11-23T19:34:26.700Z,92.00
2022-11-23T19:36:04.637Z,90.00
2022-11-23T19:37:36.773Z,89.00
2022-11-23T19:39:10.001Z,88.75
2022-11-23T19:40:41.672Z,92.00
2022-11-23T19:42:13.377Z,105.75
2022-11-23T19:43:45.471Z,98.75
2022-11-23T19:45:17.274Z,104.50
2022-11-23T19:46:49.061Z,98.50
2022-11-23T19:48:22.829Z,109.50
2022-11-23T19:49:54.571Z,113.25
2022-11-23T19:51:27.508Z,109.00
2022-11-23T19:53:14.528Z,110.25
2022-11-23T19:54:46.293Z,113.75
2022-11-23T19:56:23.432Z,107.75
2022-11-23T19:57:55.143Z,108.75
2022-11-23T19:59:27.722Z,104.50
2022-11-23T20:01:07.001Z,112.25
2022-11-23T20:02:38.800Z,99.25
2022-11-23T20:04:10.781Z,99.00
2022-11-23T20:05:58.966Z,107.75
2022-11-23T20:07:33.801Z,106.50
2022-11-23T20:09:13.199Z,109.25
2022-11-23T20:11:21.376Z,107.25
2022-11-23T20:12:53.274Z,105.75
2022-11-23T20:14:25.030Z,102.25
2022-11-23T20:16:02.556Z,95.00
2022-11-23T20:17:34.290Z,96.75
2022-11-23T20:19:06.897Z,99.75
2022-11-23T20:20:45.809Z,89.50
2022-11-23T20:22:17.596Z,88.00
2022-11-23T20:23:50.915Z,90.50
2022-11-23T20:25:22.740Z,87.00
2022-11-23T20:26:54.590Z,86.50
2022-11-23T20:28:26.299Z,96.00
2022-11-23T20:29:59.435Z,97.50
2022-11-23T20:31:31.517Z,101.50
2022-11-23T20:33:03.379Z,102.75
2022-11-23T20:34:35.431Z,101.50
2022-11-23T20:36:14.290Z,104.75
2022-11-23T20:37:45.969Z,104.25
2022-11-23T20:39:17.920Z,109.25
2022-11-23T20:40:50.516Z,106.75
2022-11-23T20:42:22.351Z,105.25
2022-11-23T20:43:57.532Z,116.50
2022-11-23T20:45:29.379Z,127.00
2022-11-23T20:47:03.615Z,113.33
2022-11-23T20:48:35.909Z,121.67
2022-11-23T20:50:08.082Z,130.00
2022-11-23T20:51:39.809Z,131.67
2022-11-23T20:53:11.711Z,126.67
2022-11-23T20:54:43.502Z,125.00
2022-11-23T20:56:15.305Z,127.00
2022-11-23T20:57:46.991Z,128.33
2022-11-23T20:59:19.802Z,126.00
2022-11-23T21:00:51.721Z,127.33
2022-11-23T21:02:23.610Z,131.00
2022-11-23T21:03:57.132Z,129.33
2022-11-23T21:05:29.192Z,113.67
2022-11-23T21:07:01.289Z,124.00
2022-11-23T21:08:34.820Z,118.75
2022-11-23T21:10:08.087Z,116.25
2022-11-23T21:11:59.031Z,115.00
2022-11-23T21:13:50.047Z,112.75
2022-11-23T21:15:21.917Z,117.75
2022-11-23T21:17:01.217Z,111.75
2022-11-23T21:18:33.323Z,107.00
2022-11-23T21:20:05.391Z,107.25
2022-11-23T21:21:37.716Z,97.75
2022-11-23T21:23:09.433Z,103.25
2022-11-23T21:24:41.373Z,121.00
2022-11-23T21:26:13.130Z,112.75
2022-11-23T21:27:44.849Z,110.50
2022-11-23T21:29:17.187Z,115.25
2022-11-23T21:30:48.931Z,114.67
2022-11-23T21:32:20.865Z,112.25
2022-11-23T21:33:54.197Z,103.50
2022-11-23T21:35:27.527Z,106.25
2022-11-23T21:36:59.453Z,107.75
2022-11-23T21:38:37.500Z,108.75
2022-11-23T21:40:13.445Z,116.50
2022-11-23T21:41:45.475Z,161.25
2022-11-23T21:43:17.254Z,143.00
2022-11-23T21:44:48.916Z,114.25
2022-11-23T21:46:21.646Z,113.00
2022-11-23T21:47:54.703Z,103.00
2022-11-23T21:49:27.882Z,94.50
2022-11-23T21:51:03.945Z,95.00
2022-11-23T21:52:35.659Z,90.00
2022-11-23T21:54:08.025Z,102.25
2022-11-23T21:55:39.694Z,98.25
2022-11-23T21:57:11.308Z,104.75
2022-11-23T21:58:43.110Z,103.00
2022-11-23T22:00:15.148Z,108.50
2022-11-23T22:01:59.628Z,107.25
2022-11-23T22:03:35.536Z,108.00
2022-11-23T22:05:07.493Z,111.25
2022-11-23T22:06:39.752Z,112.50
2022-11-23T22:08:28.627Z,107.00
2022-11-23T22:10:01.463Z,110.00
2022-11-23T22:11:34.285Z,108.75
2022-11-23T22:13:06.196Z,108.75
2022-11-23T22:14:38.460Z,105.50
2022-11-23T22:16:14.887Z,110.25
2022-11-23T22:17:46.720Z,105.75
2022-11-23T22:19:19.030Z,104.25
2022-11-23T22:20:50.828Z,99.75
2022-11-23T22:22:22.620Z,89.00
2022-11-23T22:23:54.621Z,87.25
2022-11-23T22:25:26.440Z,93.50
2022-11-23T22:26:58.284Z,96.25
2022-11-23T22:28:33.727Z,93.25
2022-11-23T22:30:06.184Z,91.75
2022-11-23T22:31:38.231Z,78.00
2022-11-23T22:33:10.020Z,87.75
2022-11-23T22:34:42.136Z,88.00
2022-11-23T22:36:21.675Z,86.75
2022-11-23T22:37:53.411Z,81.75
2022-11-23T22:39:25.310Z,77.75
2022-11-23T22:40:57.067Z,78.50
2022-11-23T22:42:29.068Z,78.25
2022-11-23T22:44:00.895Z,76.25
2022-11-23T22:45:32.790Z,74.00
2022-11-23T22:47:04.619Z,68.50
2022-11-23T22:48:39.856Z,66.75
2022-11-23T22:50:11.742Z,68.60
2022-11-23T22:51:43.636Z,70.60
2022-11-23T22:53:15.390Z,70.20
2022-11-23T22:54:47.216Z,69.00
2022-11-23T22:56:19.625Z,68.00
2022-11-23T22:57:51.379Z,62.40
2022-11-23T22:59:23.148Z,75.50
2022-11-23T23:00:55.044Z,72.25
2022-11-23T23:02:27.423Z,66.50
2022-11-23T23:04:01.490Z,67.80
2022-11-23T23:05:33.530Z,60.00
2022-11-23T23:07:05.367Z,56.50
2022-11-23T23:08:37.108Z,54.25
2022-11-23T23:10:09.300Z,52.50
2022-11-23T23:11:41.106Z,51.75
2022-11-23T23:13:12.851Z,47.50
2022-11-23T23:14:44.561Z,46.75
2022-11-23T23:16:16.409Z,61.00
2022-11-23T23:17:48.295Z,62.50
2022-11-23T23:19:20.621Z,69.80
2022-11-23T23:20:52.396Z,68.40
2022-11-23T23:22:24.511Z,73.00
2022-11-23T23:23:57.877Z,73.00
2022-11-23T23:25:30.057Z,74.00
2022-11-23T23:27:01.805Z,73.20
2022-11-23T23:28:33.691Z,75.80
2022-11-23T23:30:06.013Z,69.20
2022-11-23T23:31:37.856Z,71.60
2022-11-23T23:33:10.401Z,67.80
2022-11-23T23:34:42.248Z,74.00
